createdAt,value
2022-10-14T00:02:09.555Z,13.10
2022-10-14T00:04:36.468Z,13.10
2022-10-14T00:07:03.352Z,13.20
2022-10-14T00:09:30.263Z,13.20
2022-10-14T00:11:57.053Z,13.30
2022-10-14T00:14:24.101Z,13.30
2022-10-14T00:16:53.505Z,13.30
2022-10-14T00:19:20.548Z,13.40
2022-10-14T00:21:47.911Z,13.40
2022-10-14T00:24:16.020Z,13.40
2022-10-14T00:26:43.028Z,13.40
2022-10-14T00:29:12.915Z,13.40
2022-10-14T00:31:39.732Z,13.30
2022-10-14T00:34:06.612Z,13.30
2022-10-14T00:36:33.429Z,13.20
2022-10-14T00:39:00.421Z,13.20
2022-10-14T00:41:31.973Z,13.20
2022-10-14T00:44:03.928Z,13.20
2022-10-14T00:46:47.080Z,13.20
2022-10-14T00:49:27.643Z,13.20
2022-10-14T00:51:57.604Z,13.20
2022-10-14T00:54:25.993Z,13.20
2022-10-14T00:56:52.917Z,13.20
2022-10-14T00:59:19.790Z,13.10
2022-10-14T01:01:46.620Z,13.10
2022-10-14T01:04:13.535Z,13.20
2022-10-14T01:06:50.382Z,13.20
2022-10-14T01:09:43.763Z,13.20
2022-10-14T01:12:33.743Z,13.30
2022-10-14T01:15:17.906Z,13.30
2022-10-14T01:17:59.969Z,13.30
2022-10-14T01:20:45.362Z,13.30
2022-10-14T01:23:20.687Z,13.30
2022-10-14T01:26:02.405Z,13.30
2022-10-14T01:28:33.451Z,13.20
2022-10-14T01:31:04.939Z,13.20
2022-10-14T01:33:42.755Z,13.20
2022-10-14T01:36:17.253Z,13.10
2022-10-14T01:38:49.155Z,13.10
2022-10-14T01:41:36.836Z,13.00
2022-10-14T01:44:08.190Z,13.00
2022-10-14T01:46:35.431Z,12.90
2022-10-14T01:49:14.901Z,12.90
2022-10-14T01:51:52.641Z,12.90
2022-10-14T01:54:23.431Z,12.90
2022-10-14T01:56:50.375Z,12.80
2022-10-14T01:59:18.270Z,12.80
2022-10-14T02:01:45.807Z,12.80
2022-10-14T02:04:17.480Z,12.70
2022-10-14T02:06:52.198Z,12.70
2022-10-14T02:09:32.066Z,12.70
2022-10-14T02:12:28.174Z,12.70
2022-10-14T02:15:06.880Z,12.70
2022-10-14T02:17:39.326Z,12.70
2022-10-14T02:20:20.570Z,12.70
2022-10-14T02:22:50.474Z,12.70
2022-10-14T02:25:23.791Z,12.70
2022-10-14T02:27:50.693Z,12.70
2022-10-14T02:30:17.796Z,12.70
2022-10-14T02:32:44.863Z,12.70
2022-10-14T02:35:14.295Z,12.80
2022-10-14T02:37:41.084Z,12.80
2022-10-14T02:40:14.155Z,12.80
2022-10-14T02:42:41.035Z,12.80
2022-10-14T02:45:08.510Z,12.80
2022-10-14T02:47:35.459Z,12.80
2022-10-14T02:50:05.058Z,12.80
2022-10-14T02:52:31.900Z,12.80
2022-10-14T02:54:58.743Z,12.90
2022-10-14T02:57:25.849Z,12.90
2022-10-14T02:59:52.698Z,12.90
2022-10-14T03:02:19.887Z,12.90
2022-10-14T03:04:47.615Z,13.00
2022-10-14T03:07:14.467Z,13.00
2022-10-14T03:09:46.072Z,13.00
2022-10-14T03:12:13.138Z,13.10
2022-10-14T03:14:40.492Z,13.10
2022-10-14T03:17:09.529Z,13.10
2022-10-14T03:19:36.352Z,13.10
2022-10-14T03:22:04.348Z,13.10
2022-10-14T03:24:32.059Z,13.10
2022-10-14T03:27:21.788Z,13.10
2022-10-14T03:29:53.316Z,13.10
2022-10-14T03:32:23.808Z,13.00
2022-10-14T03:35:10.325Z,13.10
2022-10-14T03:37:38.881Z,13.00
2022-10-14T03:40:07.811Z,13.00
2022-10-14T03:42:35.538Z,13.10
2022-10-14T03:45:02.418Z,13.10
2022-10-14T03:47:31.057Z,13.10
2022-10-14T03:49:59.197Z,13.10
2022-10-14T03:52:37.405Z,13.10
2022-10-14T03:55:08.807Z,13.10
2022-10-14T03:57:35.665Z,13.10
2022-10-14T04:00:06.034Z,13.10
2022-10-14T04:02:42.022Z,13.00
2022-10-14T04:05:37.029Z,13.00
2022-10-14T04:08:10.185Z,12.90
2022-10-14T04:10:40.585Z,12.90
2022-10-14T04:13:09.850Z,12.90
2022-10-14T04:15:38.636Z,12.90
2022-10-14T04:18:14.975Z,12.90
2022-10-14T04:20:47.043Z,12.90
2022-10-14T04:23:15.548Z,12.90
2022-10-14T04:25:45.705Z,12.90
2022-10-14T04:28:13.273Z,12.90
2022-10-14T04:30:57.316Z,12.90
2022-10-14T04:33:28.457Z,12.90
2022-10-14T04:35:59.073Z,13.00
2022-10-14T04:38:31.795Z,13.00
2022-10-14T04:41:04.435Z,13.00
2022-10-14T04:43:31.412Z,13.00
2022-10-14T04:46:08.925Z,13.00
2022-10-14T04:48:35.923Z,13.00
2022-10-14T04:51:04.323Z,13.00
2022-10-14T04:54:06.383Z,13.00
2022-10-14T04:56:45.279Z,13.00
2022-10-14T04:59:13.671Z,13.00
2022-10-14T05:01:55.562Z,13.00
2022-10-14T05:04:27.343Z,13.00
2022-10-14T05:06:56.815Z,13.00
2022-10-14T05:09:24.319Z,12.90
2022-10-14T05:11:51.405Z,12.90
2022-10-14T05:14:22.759Z,12.90
2022-10-14T05:16:59.568Z,12.90
2022-10-14T05:19:30.524Z,13.00
2022-10-14T05:21:57.868Z,12.90
2022-10-14T05:24:31.147Z,12.90
2022-10-14T05:26:58.042Z,12.90
2022-10-14T05:29:26.887Z,12.90
2022-10-14T05:31:54.596Z,12.90
2022-10-14T05:34:37.126Z,13.00
2022-10-14T05:37:07.312Z,12.90
2022-10-14T05:39:41.994Z,12.90
2022-10-14T05:42:09.036Z,12.90
2022-10-14T05:44:36.038Z,13.00
2022-10-14T05:47:04.293Z,13.00
2022-10-14T05:49:31.319Z,13.00
2022-10-14T05:52:00.923Z,13.10
2022-10-14T05:54:27.751Z,13.10
2022-10-14T05:56:57.019Z,13.10
2022-10-14T05:59:24.824Z,13.10
2022-10-14T06:01:52.237Z,13.10
2022-10-14T06:04:19.823Z,13.10
2022-10-14T06:06:46.664Z,13.10
2022-10-14T06:09:15.331Z,13.00
2022-10-14T06:11:42.369Z,13.00
2022-10-14T06:14:09.949Z,13.00
2022-10-14T06:16:37.358Z,13.00
2022-10-14T06:19:07.324Z,13.00
2022-10-14T06:21:34.463Z,13.00
2022-10-14T06:24:01.351Z,13.00
2022-10-14T06:26:28.278Z,13.00
2022-10-14T06:28:55.475Z,13.10
2022-10-14T06:31:23.013Z,13.00
2022-10-14T06:33:50.296Z,13.00
2022-10-14T06:36:17.282Z,13.00
2022-10-14T06:38:44.086Z,13.10
2022-10-14T06:41:11.746Z,13.10
2022-10-14T06:43:39.693Z,13.20
2022-10-14T06:46:06.745Z,13.20
2022-10-14T06:48:33.997Z,13.30
2022-10-14T06:51:01.621Z,13.30
2022-10-14T06:53:28.836Z,13.40
2022-10-14T06:56:03.522Z,13.50
2022-10-14T06:58:30.932Z,13.50
2022-10-14T07:01:05.191Z,13.50
2022-10-14T07:03:33.970Z,13.50
2022-10-14T07:06:03.649Z,13.60
2022-10-14T07:08:30.561Z,13.60
2022-10-14T07:10:57.360Z,13.60
2022-10-14T07:13:24.230Z,13.60
2022-10-14T07:15:52.349Z,13.70
2022-10-14T07:18:19.387Z,13.70
2022-10-14T07:20:46.748Z,13.80
2022-10-14T07:23:13.613Z,13.80
2022-10-14T07:25:40.447Z,13.80
2022-10-14T07:28:07.226Z,13.90
2022-10-14T07:30:34.215Z,13.90
2022-10-14T07:33:01.294Z,14.00
2022-10-14T07:35:28.248Z,13.90
2022-10-14T07:37:55.220Z,13.90
2022-10-14T07:40:22.175Z,13.90
2022-10-14T07:42:49.059Z,14.00
2022-10-14T07:45:18.172Z,14.00
2022-10-14T07:47:46.852Z,14.10
2022-10-14T07:50:13.659Z,14.20
2022-10-14T07:52:40.534Z,14.30
2022-10-14T07:55:07.819Z,14.40
2022-10-14T07:57:34.634Z,14.50
2022-10-14T08:00:01.818Z,14.60
2022-10-14T08:02:38.799Z,14.70
2022-10-14T08:05:32.916Z,14.80
2022-10-14T08:07:52.935Z,14.90
2022-10-14T08:10:19.899Z,15.00
2022-10-14T08:12:46.749Z,15.10
2022-10-14T08:15:13.700Z,15.20
2022-10-14T08:17:40.614Z,15.20
2022-10-14T08:20:08.058Z,15.20
2022-10-14T08:22:35.044Z,15.30
2022-10-14T08:25:02.221Z,15.30
2022-10-14T08:27:29.171Z,15.30
2022-10-14T08:29:56.011Z,15.30
2022-10-14T08:32:23.565Z,15.30
2022-10-14T08:34:50.788Z,15.30
2022-10-14T08:37:17.602Z,15.40
2022-10-14T08:39:44.541Z,15.30
2022-10-14T08:42:36.369Z,15.40
2022-10-14T08:45:22.290Z,15.40
2022-10-14T08:47:49.161Z,15.40
2022-10-14T08:50:21.857Z,15.50
2022-10-14T08:52:53.960Z,15.50
2022-10-14T08:55:46.721Z,15.60
2022-10-14T08:58:22.886Z,15.70
2022-10-14T09:00:53.567Z,15.80
2022-10-14T09:03:22.585Z,15.80
2022-10-14T09:05:58.751Z,15.90
2022-10-14T09:08:35.057Z,15.90
2022-10-14T09:11:02.026Z,15.90
2022-10-14T09:13:30.620Z,16.00
2022-10-14T09:16:03.902Z,16.10
2022-10-14T09:18:40.373Z,16.20
2022-10-14T09:21:53.323Z,16.20
2022-10-14T09:24:36.645Z,16.30
2022-10-14T09:27:18.148Z,16.40
2022-10-14T09:29:52.387Z,16.60
2022-10-14T09:32:28.322Z,16.60
2022-10-14T09:34:55.272Z,16.70
2022-10-14T09:37:35.941Z,16.80
2022-10-14T09:40:08.830Z,16.90
2022-10-14T09:42:49.403Z,16.90
2022-10-14T09:45:18.323Z,17.00
2022-10-14T09:47:50.000Z,17.00
2022-10-14T09:50:25.566Z,17.00
2022-10-14T09:52:54.763Z,17.10
2022-10-14T09:55:23.988Z,17.10
2022-10-14T09:58:05.934Z,17.10
2022-10-14T10:00:34.286Z,17.20
2022-10-14T10:03:01.215Z,17.30
2022-10-14T10:05:32.669Z,17.40
2022-10-14T10:08:19.742Z,17.60
2022-10-14T10:11:09.764Z,17.70
2022-10-14T10:13:48.157Z,17.80
2022-10-14T10:16:24.638Z,17.90
2022-10-14T10:18:52.143Z,17.90
2022-10-14T10:21:26.702Z,17.90
2022-10-14T10:23:58.469Z,17.90
2022-10-14T10:26:33.178Z,17.80
2022-10-14T10:29:05.106Z,17.70
2022-10-14T10:31:56.463Z,17.60
2022-10-14T10:34:45.192Z,17.50
2022-10-14T10:37:31.798Z,17.40
2022-10-14T10:40:17.136Z,17.40
2022-10-14T10:43:14.816Z,17.30
2022-10-14T10:46:13.863Z,17.30
2022-10-14T10:48:43.762Z,17.30
2022-10-14T10:51:48.898Z,17.30
2022-10-14T10:54:27.935Z,17.20
2022-10-14T10:56:57.664Z,17.20
2022-10-14T10:59:43.388Z,17.20
2022-10-14T11:02:58.627Z,17.10
2022-10-14T11:05:45.864Z,17.10
2022-10-14T11:08:46.795Z,17.10
2022-10-14T11:11:35.730Z,17.10
2022-10-14T11:14:47.240Z,17.10
2022-10-14T11:17:28.771Z,17.00
2022-10-14T11:20:22.584Z,17.00
2022-10-14T11:23:04.729Z,17.10
2022-10-14T11:26:04.018Z,17.10
2022-10-14T11:28:46.658Z,17.00
2022-10-14T11:31:25.224Z,17.00
2022-10-14T11:34:27.508Z,17.10
2022-10-14T11:37:37.209Z,17.10
2022-10-14T11:40:32.048Z,17.20
2022-10-14T11:43:17.467Z,17.40
2022-10-14T11:45:57.706Z,17.50
2022-10-14T11:48:32.373Z,17.70
2022-10-14T11:51:12.742Z,17.80
2022-10-14T11:54:04.133Z,17.90
2022-10-14T11:56:42.802Z,18.00
2022-10-14T12:00:01.196Z,18.10
2022-10-14T12:02:33.209Z,18.10
2022-10-14T12:05:43.437Z,18.10
2022-10-14T12:08:35.877Z,18.10
2022-10-14T12:11:21.026Z,18.00
2022-10-14T12:13:52.344Z,17.90
2022-10-14T12:16:22.951Z,17.80
2022-10-14T12:18:52.763Z,17.70
2022-10-14T12:21:33.677Z,17.70
2022-10-14T12:24:06.302Z,17.60
2022-10-14T12:26:52.973Z,17.60
2022-10-14T12:29:24.240Z,17.50
2022-10-14T12:32:09.594Z,17.40
2022-10-14T12:34:41.168Z,17.40
2022-10-14T12:37:40.429Z,17.40
2022-10-14T12:40:13.492Z,17.40
2022-10-14T12:42:57.999Z,17.50
2022-10-14T12:45:29.025Z,17.60
2022-10-14T12:48:02.847Z,17.60
2022-10-14T12:50:31.310Z,17.70
2022-10-14T12:53:02.347Z,17.70
2022-10-14T12:55:31.383Z,17.80
2022-10-14T12:58:03.259Z,17.70
2022-10-14T13:00:40.610Z,17.70
2022-10-14T13:03:18.049Z,17.70
2022-10-14T13:05:47.994Z,17.60
2022-10-14T13:08:26.014Z,17.60
2022-10-14T13:10:58.872Z,17.60
2022-10-14T13:13:42.184Z,17.70
2022-10-14T13:16:10.182Z,17.70
2022-10-14T13:18:43.081Z,17.70
2022-10-14T13:21:11.286Z,17.70
2022-10-14T13:23:41.514Z,17.70
2022-10-14T13:26:46.473Z,17.70
2022-10-14T13:29:34.729Z,17.70
2022-10-14T13:32:10.707Z,17.80
2022-10-14T13:34:43.991Z,17.80
2022-10-14T13:37:25.301Z,17.80
2022-10-14T13:39:52.281Z,17.70
2022-10-14T13:42:24.440Z,17.70
2022-10-14T13:44:52.054Z,17.60
2022-10-14T13:47:20.910Z,17.60
2022-10-14T13:49:48.011Z,17.50
2022-10-14T13:52:25.909Z,17.50
2022-10-14T13:55:25.461Z,17.50
2022-10-14T13:58:13.607Z,17.50
2022-10-14T14:00:57.849Z,17.60
2022-10-14T14:03:45.231Z,17.60
2022-10-14T14:06:14.915Z,17.70
2022-10-14T14:08:46.878Z,18.00
2022-10-14T14:11:21.935Z,18.40
2022-10-14T14:14:00.279Z,18.60
2022-10-14T14:16:35.797Z,18.70
2022-10-14T14:19:08.412Z,18.80
2022-10-14T14:21:35.975Z,18.80
2022-10-14T14:24:02.852Z,19.20
2022-10-14T14:26:36.287Z,19.40
2022-10-14T14:29:14.366Z,19.50
2022-10-14T14:34:30.030Z,19.20
2022-10-14T14:37:06.096Z,19.00
2022-10-14T14:39:57.973Z,18.90
2022-10-14T14:42:25.696Z,18.70
2022-10-14T14:44:54.539Z,18.60
2022-10-14T14:47:21.737Z,18.40
2022-10-14T14:49:54.090Z,18.40
2022-10-14T14:52:24.638Z,18.30
2022-10-14T14:54:51.839Z,18.10
2022-10-14T14:57:20.189Z,18.00
2022-10-14T15:00:01.254Z,17.90
2022-10-14T15:02:28.205Z,17.80
2022-10-14T15:05:09.118Z,17.80
2022-10-14T15:07:36.263Z,17.70
2022-10-14T15:10:07.285Z,17.50
2022-10-14T15:12:42.539Z,17.50
2022-10-14T15:15:26.932Z,17.30
2022-10-14T15:18:14.035Z,17.30
2022-10-14T15:20:44.290Z,17.20
2022-10-14T15:23:39.594Z,17.20
2022-10-14T15:26:33.421Z,17.10
2022-10-14T15:29:15.071Z,17.10
2022-10-14T15:31:43.748Z,17.00
2022-10-14T15:34:18.454Z,17.00
2022-10-14T15:36:45.350Z,16.90
2022-10-14T15:39:13.872Z,16.90
2022-10-14T15:41:41.867Z,16.80
2022-10-14T15:44:08.673Z,16.80
2022-10-14T15:46:54.931Z,16.80
2022-10-14T15:49:28.219Z,16.80
2022-10-14T15:51:55.150Z,16.80
2022-10-14T15:54:27.525Z,16.80
2022-10-14T15:56:57.738Z,16.80
2022-10-14T15:59:24.890Z,16.80
2022-10-14T16:01:52.164Z,16.80
2022-10-14T16:04:22.394Z,16.80
2022-10-14T16:06:49.583Z,16.70
2022-10-14T16:09:16.458Z,16.70
2022-10-14T16:11:43.325Z,16.70
2022-10-14T16:14:12.604Z,16.60
2022-10-14T16:16:46.040Z,16.60
2022-10-14T16:19:12.902Z,16.70
2022-10-14T16:21:40.334Z,16.60
2022-10-14T16:24:07.793Z,16.60
2022-10-14T16:26:34.731Z,16.60
2022-10-14T16:29:03.744Z,16.60
2022-10-14T16:31:30.555Z,16.60
2022-10-14T16:33:57.413Z,16.60
2022-10-14T16:36:26.298Z,16.50
2022-10-14T16:38:55.270Z,16.50
2022-10-14T16:41:22.266Z,16.40
2022-10-14T16:43:49.187Z,16.40
2022-10-14T16:46:17.641Z,16.40
2022-10-14T16:48:47.580Z,16.30
2022-10-14T16:51:15.589Z,16.20
2022-10-14T16:53:44.813Z,16.20
2022-10-14T16:56:35.075Z,16.20
2022-10-14T16:59:02.096Z,16.10
2022-10-14T17:01:29.156Z,16.10
2022-10-14T17:03:56.525Z,16.10
2022-10-14T17:06:24.536Z,16.10
2022-10-14T17:08:51.557Z,16.10
2022-10-14T17:11:18.580Z,16.10
2022-10-14T17:13:45.494Z,16.10
2022-10-14T17:16:12.363Z,16.10
2022-10-14T17:18:39.522Z,16.00
2022-10-14T17:21:08.362Z,16.00
2022-10-14T17:23:35.850Z,16.00
2022-10-14T17:26:04.209Z,16.00
2022-10-14T17:28:31.472Z,16.00
2022-10-14T17:30:58.894Z,15.90
2022-10-14T17:33:26.142Z,15.80
2022-10-14T17:36:00.080Z,15.70
2022-10-14T17:38:28.296Z,15.50
2022-10-14T17:41:05.673Z,15.50
2022-10-14T17:43:36.501Z,15.40
2022-10-14T17:48:35.245Z,15.30
2022-10-14T17:51:02.581Z,15.20
2022-10-14T17:53:29.561Z,15.30
2022-10-14T17:55:59.034Z,15.50
2022-10-14T17:58:26.021Z,15.70
2022-10-14T18:00:52.873Z,15.70
2022-10-14T18:03:20.039Z,15.70
2022-10-14T18:05:48.944Z,15.70
2022-10-14T18:08:16.017Z,15.70
2022-10-14T18:10:42.909Z,15.70
2022-10-14T18:13:09.859Z,15.70
2022-10-14T18:15:36.817Z,15.70
2022-10-14T18:18:03.753Z,15.60
2022-10-14T18:20:31.943Z,15.50
2022-10-14T18:23:02.702Z,15.40
2022-10-14T18:25:29.585Z,15.30
2022-10-14T18:27:56.506Z,15.20
2022-10-14T18:30:23.331Z,15.10
2022-10-14T18:32:50.107Z,15.10
2022-10-14T18:35:17.108Z,15.10
2022-10-14T18:37:43.908Z,15.00
2022-10-14T18:40:11.358Z,15.00
2022-10-14T18:42:38.213Z,15.00
2022-10-14T18:45:05.583Z,15.00
2022-10-14T18:47:41.709Z,15.00
2022-10-14T18:50:08.725Z,15.00
2022-10-14T18:52:35.598Z,14.90
2022-10-14T18:55:02.440Z,14.90
2022-10-14T18:57:29.344Z,14.80
2022-10-14T18:59:56.715Z,14.70
2022-10-14T19:02:23.889Z,14.70
2022-10-14T19:04:51.194Z,14.60
2022-10-14T19:07:18.025Z,14.60
2022-10-14T19:09:44.917Z,14.60
2022-10-14T19:12:30.286Z,14.50
2022-10-14T19:14:57.120Z,14.50
2022-10-14T19:17:24.313Z,14.50
2022-10-14T19:19:51.171Z,14.40
2022-10-14T19:22:18.067Z,14.40
2022-10-14T19:24:45.120Z,14.40
2022-10-14T19:27:11.910Z,14.30
2022-10-14T19:29:38.824Z,14.30
2022-10-14T19:32:05.804Z,14.30
2022-10-14T19:34:32.587Z,14.30
2022-10-14T19:37:00.241Z,14.30
2022-10-14T19:39:27.097Z,14.20
2022-10-14T19:41:53.954Z,14.20
2022-10-14T19:44:20.845Z,14.20
2022-10-14T19:46:47.759Z,14.20
2022-10-14T19:49:14.995Z,14.10
2022-10-14T19:51:41.947Z,14.20
2022-10-14T19:54:09.824Z,14.30
2022-10-14T19:56:36.671Z,14.30
2022-10-14T19:59:03.577Z,14.30
2022-10-14T20:01:30.661Z,14.20
2022-10-14T20:03:58.983Z,14.20
2022-10-14T20:06:27.498Z,14.20
2022-10-14T20:08:54.429Z,14.10
2022-10-14T20:11:23.399Z,14.10
2022-10-14T20:13:50.613Z,14.00
2022-10-14T20:16:17.478Z,14.00
2022-10-14T20:18:44.350Z,14.00
2022-10-14T20:21:13.045Z,13.90
2022-10-14T20:23:40.826Z,13.80
2022-10-14T20:26:09.065Z,13.80
2022-10-14T20:28:36.437Z,13.70
2022-10-14T20:31:07.176Z,13.70
2022-10-14T20:33:34.202Z,13.70
2022-10-14T20:36:02.109Z,13.70
2022-10-14T20:38:29.030Z,13.70
2022-10-14T20:40:55.900Z,13.70
2022-10-14T20:43:22.886Z,13.70
2022-10-14T20:45:49.891Z,13.60
2022-10-14T20:48:16.694Z,13.60
2022-10-14T20:50:44.108Z,13.50
2022-10-14T20:53:10.970Z,13.50
2022-10-14T20:55:37.898Z,13.50
2022-10-14T20:58:04.800Z,13.50
2022-10-14T21:00:31.696Z,13.40
2022-10-14T21:02:58.704Z,13.40
2022-10-14T21:05:25.701Z,13.40
2022-10-14T21:07:52.715Z,13.40
2022-10-14T21:10:19.838Z,13.30
2022-10-14T21:12:48.792Z,13.30
2022-10-14T21:15:16.142Z,13.30
2022-10-14T21:17:50.503Z,13.30
2022-10-14T21:20:17.958Z,13.30
2022-10-14T21:22:45.498Z,13.30
2022-10-14T21:25:13.435Z,13.20
2022-10-14T21:28:31.715Z,13.20
2022-10-14T21:30:58.677Z,13.10
2022-10-14T21:33:25.673Z,13.10
2022-10-14T21:35:52.472Z,13.10
2022-10-14T21:38:19.247Z,13.10
2022-10-14T21:40:46.106Z,13.00
2022-10-14T21:43:13.013Z,13.10
2022-10-14T21:45:39.907Z,13.00
2022-10-14T21:48:07.088Z,13.00
2022-10-14T21:50:33.940Z,13.00
2022-10-14T21:53:01.489Z,13.00
2022-10-14T21:55:28.306Z,13.00
2022-10-14T21:57:55.093Z,13.00
2022-10-14T22:00:22.139Z,13.00
2022-10-14T22:02:53.030Z,13.00
2022-10-14T22:05:20.716Z,13.00
2022-10-14T22:07:47.863Z,13.00
2022-10-14T22:10:33.802Z,13.00
2022-10-14T22:13:01.338Z,13.00
2022-10-14T22:15:28.158Z,13.00
2022-10-14T22:17:54.949Z,13.00
2022-10-14T22:20:22.098Z,12.90
2022-10-14T22:22:49.348Z,12.90
2022-10-14T22:25:17.665Z,12.90
2022-10-14T22:27:45.298Z,12.90
2022-10-14T22:30:13.687Z,12.80
2022-10-14T22:32:40.803Z,12.70
2022-10-14T22:35:11.380Z,12.70
2022-10-14T22:37:38.536Z,12.70
2022-10-14T22:40:06.855Z,12.70
2022-10-14T22:42:35.949Z,12.70
2022-10-14T22:45:06.935Z,12.60
2022-10-14T22:47:34.890Z,12.60
2022-10-14T22:50:03.704Z,12.60
2022-10-14T22:52:31.507Z,12.60
2022-10-14T22:55:00.096Z,12.50
2022-10-14T22:57:27.854Z,12.50
2022-10-14T22:59:56.283Z,12.50
2022-10-14T23:02:25.591Z,12.50
2022-10-14T23:04:54.193Z,12.60
2022-10-14T23:07:24.828Z,12.70
2022-10-14T23:09:56.584Z,12.80
2022-10-14T23:12:24.102Z,12.90
2022-10-14T23:14:51.391Z,12.90
2022-10-14T23:17:18.242Z,13.00
2022-10-14T23:19:46.658Z,13.00
2022-10-14T23:22:13.498Z,13.00
2022-10-14T23:24:40.348Z,13.00
2022-10-14T23:27:07.248Z,12.90
2022-10-14T23:29:34.115Z,12.90
2022-10-14T23:32:02.105Z,12.80
2022-10-14T23:34:30.464Z,12.80
2022-10-14T23:36:57.325Z,12.70
2022-10-14T23:39:24.184Z,12.70
2022-10-14T23:41:51.205Z,12.60
2022-10-14T23:44:18.109Z,12.50
2022-10-14T23:46:45.709Z,12.50
2022-10-14T23:49:26.643Z,12.40
2022-10-14T23:51:54.594Z,12.30
2022-10-14T23:54:21.494Z,12.30
2022-10-14T23:56:48.346Z,12.30
2022-10-14T23:59:15.146Z,12.20
